sensor_id;sensor_type;location;lat;lon;timestamp;P1;durP1;ratioP1;P2;durP2;ratioP2
21438;SDS011;10880;50.302;18.736;2023-09-19T00:00:40;3.27;;;2.97;;
21438;SDS011;10880;50.302;18.736;2023-09-19T00:03:08;3.30;;;3.00;;
21438;SDS011;10880;50.302;18.736;2023-09-19T00:05:35;3.43;;;3.13;;
21438;SDS011;10880;50.302;18.736;2023-09-19T00:08:02;3.33;;;3.00;;
21438;SDS011;10880;50.302;18.736;2023-09-19T00:10:30;3.73;;;3.17;;
21438;SDS011;10880;50.302;18.736;2023-09-19T00:13:03;3.57;;;3.27;;
21438;SDS011;10880;50.302;18.736;2023-09-19T00:15:36;3.43;;;3.10;;
21438;SDS011;10880;50.302;18.736;2023-09-19T00:18:08;3.40;;;3.10;;
21438;SDS011;10880;50.302;18.736;2023-09-19T00:20:37;3.47;;;3.17;;
21438;SDS011;10880;50.302;18.736;2023-09-19T00:23:05;3.43;;;3.13;;
21438;SDS011;10880;50.302;18.736;2023-09-19T00:25:32;3.37;;;3.07;;
21438;SDS011;10880;50.302;18.736;2023-09-19T00:28:01;3.33;;;3.03;;
21438;SDS011;10880;50.302;18.736;2023-09-19T00:30:28;3.60;;;2.97;;
21438;SDS011;10880;50.302;18.736;2023-09-19T00:32:54;3.80;;;3.27;;
21438;SDS011;10880;50.302;18.736;2023-09-19T00:35:21;3.17;;;2.93;;
21438;SDS011;10880;50.302;18.736;2023-09-19T00:37:51;3.50;;;3.20;;
21438;SDS011;10880;50.302;18.736;2023-09-19T00:40:18;3.50;;;3.20;;
21438;SDS011;10880;50.302;18.736;2023-09-19T00:42:47;3.03;;;2.83;;
21438;SDS011;10880;50.302;18.736;2023-09-19T00:45:15;3.33;;;3.03;;
21438;SDS011;10880;50.302;18.736;2023-09-19T00:47:49;3.37;;;3.07;;
21438;SDS011;10880;50.302;18.736;2023-09-19T00:50:17;3.20;;;2.90;;
21438;SDS011;10880;50.302;18.736;2023-09-19T00:52:47;3.30;;;3.00;;
21438;SDS011;10880;50.302;18.736;2023-09-19T00:55:16;3.53;;;3.23;;
21438;SDS011;10880;50.302;18.736;2023-09-19T00:57:45;3.50;;;3.20;;
21438;SDS011;10880;50.302;18.736;2023-09-19T01:00:13;3.67;;;3.27;;
21438;SDS011;10880;50.302;18.736;2023-09-19T01:02:42;3.80;;;3.03;;
21438;SDS011;10880;50.302;18.736;2023-09-19T01:05:09;3.53;;;3.23;;
21438;SDS011;10880;50.302;18.736;2023-09-19T01:07:38;3.50;;;3.20;;
21438;SDS011;10880;50.302;18.736;2023-09-19T01:10:07;3.50;;;3.20;;
21438;SDS011;10880;50.302;18.736;2023-09-19T01:15:09;3.37;;;3.07;;
21438;SDS011;10880;50.302;18.736;2023-09-19T01:29:51;3.20;;;2.90;;
21438;SDS011;10880;50.302;18.736;2023-09-19T01:32:21;3.53;;;3.23;;
21438;SDS011;10880;50.302;18.736;2023-09-19T01:34:52;3.30;;;3.00;;
21438;SDS011;10880;50.302;18.736;2023-09-19T01:37:29;3.93;;;3.37;;
21438;SDS011;10880;50.302;18.736;2023-09-19T01:40:02;3.83;;;3.20;;
21438;SDS011;10880;50.302;18.736;2023-09-19T01:42:46;3.37;;;3.07;;
21438;SDS011;10880;50.302;18.736;2023-09-19T01:45:25;3.60;;;3.30;;
21438;SDS011;10880;50.302;18.736;2023-09-19T01:48:11;3.37;;;3.07;;
21438;SDS011;10880;50.302;18.736;2023-09-19T01:51:05;3.70;;;3.40;;
21438;SDS011;10880;50.302;18.736;2023-09-19T01:53:33;3.63;;;3.33;;
21438;SDS011;10880;50.302;18.736;2023-09-19T01:56:07;3.53;;;3.23;;
21438;SDS011;10880;50.302;18.736;2023-09-19T01:58:45;3.20;;;2.90;;
21438;SDS011;10880;50.302;18.736;2023-09-19T02:01:19;3.30;;;3.00;;
21438;SDS011;10880;50.302;18.736;2023-09-19T02:03:48;3.53;;;3.23;;
21438;SDS011;10880;50.302;18.736;2023-09-19T02:06:15;3.47;;;3.13;;
21438;SDS011;10880;50.302;18.736;2023-09-19T02:08:43;3.63;;;3.33;;
21438;SDS011;10880;50.302;18.736;2023-09-19T02:11:13;3.30;;;3.00;;
21438;SDS011;10880;50.302;18.736;2023-09-19T02:13:39;3.83;;;3.43;;
21438;SDS011;10880;50.302;18.736;2023-09-19T02:16:06;3.50;;;3.20;;
21438;SDS011;10880;50.302;18.736;2023-09-19T02:18:35;3.70;;;3.40;;
21438;SDS011;10880;50.302;18.736;2023-09-19T02:21:02;3.60;;;3.30;;
21438;SDS011;10880;50.302;18.736;2023-09-19T02:23:30;3.87;;;3.30;;
21438;SDS011;10880;50.302;18.736;2023-09-19T02:25:56;3.63;;;3.17;;
21438;SDS011;10880;50.302;18.736;2023-09-19T02:28:32;3.70;;;3.40;;
21438;SDS011;10880;50.302;18.736;2023-09-19T02:30:59;3.60;;;3.30;;
21438;SDS011;10880;50.302;18.736;2023-09-19T02:33:26;4.03;;;3.13;;
21438;SDS011;10880;50.302;18.736;2023-09-19T02:35:56;3.80;;;3.30;;
21438;SDS011;10880;50.302;18.736;2023-09-19T02:38:23;3.30;;;3.00;;
21438;SDS011;10880;50.302;18.736;2023-09-19T02:40:52;3.47;;;3.13;;
21438;SDS011;10880;50.302;18.736;2023-09-19T02:43:18;3.50;;;3.20;;
21438;SDS011;10880;50.302;18.736;2023-09-19T02:45:48;3.60;;;3.30;;
21438;SDS011;10880;50.302;18.736;2023-09-19T02:48:22;3.80;;;3.40;;
21438;SDS011;10880;50.302;18.736;2023-09-19T02:50:50;4.27;;;3.60;;
21438;SDS011;10880;50.302;18.736;2023-09-19T02:53:17;3.60;;;3.30;;
21438;SDS011;10880;50.302;18.736;2023-09-19T02:55:44;3.93;;;3.53;;
21438;SDS011;10880;50.302;18.736;2023-09-19T02:58:12;3.90;;;3.50;;
21438;SDS011;10880;50.302;18.736;2023-09-19T03:00:40;3.83;;;3.50;;
21438;SDS011;10880;50.302;18.736;2023-09-19T03:03:13;3.33;;;3.03;;
21438;SDS011;10880;50.302;18.736;2023-09-19T03:05:41;3.97;;;3.57;;
21438;SDS011;10880;50.302;18.736;2023-09-19T03:08:13;3.80;;;3.40;;
21438;SDS011;10880;50.302;18.736;2023-09-19T03:10:45;3.87;;;3.43;;
21438;SDS011;10880;50.302;18.736;2023-09-19T03:13:14;4.30;;;3.90;;
21438;SDS011;10880;50.302;18.736;2023-09-19T03:15:41;3.73;;;3.40;;
21438;SDS011;10880;50.302;18.736;2023-09-19T03:18:13;4.73;;;3.13;;
21438;SDS011;10880;50.302;18.736;2023-09-19T03:20:40;3.80;;;3.50;;
21438;SDS011;10880;50.302;18.736;2023-09-19T03:23:07;5.67;;;3.80;;
21438;SDS011;10880;50.302;18.736;2023-09-19T03:25:35;4.43;;;4.00;;
21438;SDS011;10880;50.302;18.736;2023-09-19T03:28:02;4.67;;;3.73;;
21438;SDS011;10880;50.302;18.736;2023-09-19T03:30:34;4.00;;;3.60;;
21438;SDS011;10880;50.302;18.736;2023-09-19T03:33:03;3.90;;;3.50;;
21438;SDS011;10880;50.302;18.736;2023-09-19T03:35:31;4.40;;;3.87;;
21438;SDS011;10880;50.302;18.736;2023-09-19T03:37:57;4.00;;;3.60;;
21438;SDS011;10880;50.302;18.736;2023-09-19T03:40:24;5.20;;;3.73;;
21438;SDS011;10880;50.302;18.736;2023-09-19T03:42:51;4.13;;;3.73;;
21438;SDS011;10880;50.302;18.736;2023-09-19T03:45:18;4.10;;;3.70;;
21438;SDS011;10880;50.302;18.736;2023-09-19T03:47:49;4.03;;;3.47;;
21438;SDS011;10880;50.302;18.736;2023-09-19T03:50:18;3.83;;;3.27;;
21438;SDS011;10880;50.302;18.736;2023-09-19T03:52:45;3.57;;;3.27;;
21438;SDS011;10880;50.302;18.736;2023-09-19T03:55:12;3.43;;;3.13;;
21438;SDS011;10880;50.302;18.736;2023-09-19T03:57:40;3.87;;;3.47;;
21438;SDS011;10880;50.302;18.736;2023-09-19T04:00:06;4.10;;;3.47;;
21438;SDS011;10880;50.302;18.736;2023-09-19T04:02:41;4.40;;;3.43;;
21438;SDS011;10880;50.302;18.736;2023-09-19T04:05:08;4.33;;;3.40;;
21438;SDS011;10880;50.302;18.736;2023-09-19T04:07:36;3.60;;;3.30;;
21438;SDS011;10880;50.302;18.736;2023-09-19T04:10:03;3.70;;;3.20;;
21438;SDS011;10880;50.302;18.736;2023-09-19T04:12:31;4.10;;;3.70;;
21438;SDS011;10880;50.302;18.736;2023-09-19T04:14:58;3.70;;;3.40;;
21438;SDS011;10880;50.302;18.736;2023-09-19T04:17:25;3.70;;;3.40;;
21438;SDS011;10880;50.302;18.736;2023-09-19T04:19:52;3.60;;;3.30;;
21438;SDS011;10880;50.302;18.736;2023-09-19T04:22:19;4.30;;;3.57;;
21438;SDS011;10880;50.302;18.736;2023-09-19T04:24:46;3.77;;;3.37;;
21438;SDS011;10880;50.302;18.736;2023-09-19T04:27:13;6.77;;;4.03;;
21438;SDS011;10880;50.302;18.736;2023-09-19T04:29:40;5.83;;;3.67;;
21438;SDS011;10880;50.302;18.736;2023-09-19T04:32:10;6.17;;;3.67;;
21438;SDS011;10880;50.302;18.736;2023-09-19T04:34:39;4.70;;;3.70;;
21438;SDS011;10880;50.302;18.736;2023-09-19T04:37:05;4.27;;;3.87;;
21438;SDS011;10880;50.302;18.736;2023-09-19T04:39:31;3.43;;;3.13;;
21438;SDS011;10880;50.302;18.736;2023-09-19T04:41:58;4.80;;;3.57;;
21438;SDS011;10880;50.302;18.736;2023-09-19T04:44:25;4.13;;;3.47;;
21438;SDS011;10880;50.302;18.736;2023-09-19T04:46:52;3.83;;;3.43;;
21438;SDS011;10880;50.302;18.736;2023-09-19T04:49:19;3.93;;;3.43;;
21438;SDS011;10880;50.302;18.736;2023-09-19T04:51:45;3.67;;;3.37;;
21438;SDS011;10880;50.302;18.736;2023-09-19T04:54:12;3.60;;;3.30;;
21438;SDS011;10880;50.302;18.736;2023-09-19T04:56:40;3.60;;;3.30;;
21438;SDS011;10880;50.302;18.736;2023-09-19T04:59:06;3.60;;;3.30;;
21438;SDS011;10880;50.302;18.736;2023-09-19T05:01:33;3.90;;;3.40;;
21438;SDS011;10880;50.302;18.736;2023-09-19T05:03:59;3.80;;;3.50;;
21438;SDS011;10880;50.302;18.736;2023-09-19T05:06:26;4.10;;;3.70;;
21438;SDS011;10880;50.302;18.736;2023-09-19T05:08:53;3.57;;;3.27;;
21438;SDS011;10880;50.302;18.736;2023-09-19T05:11:19;3.63;;;3.30;;
21438;SDS011;10880;50.302;18.736;2023-09-19T05:13:48;3.60;;;3.30;;
21438;SDS011;10880;50.302;18.736;2023-09-19T05:16:18;3.70;;;3.20;;
21438;SDS011;10880;50.302;18.736;2023-09-19T05:18:45;3.30;;;3.00;;
21438;SDS011;10880;50.302;18.736;2023-09-19T05:21:11;3.37;;;3.03;;
21438;SDS011;10880;50.302;18.736;2023-09-19T05:23:38;3.23;;;2.93;;
21438;SDS011;10880;50.302;18.736;2023-09-19T05:26:05;3.27;;;2.97;;
21438;SDS011;10880;50.302;18.736;2023-09-19T05:28:31;3.00;;;2.80;;
21438;SDS011;10880;50.302;18.736;2023-09-19T05:31:00;3.20;;;2.90;;
21438;SDS011;10880;50.302;18.736;2023-09-19T05:33:28;3.30;;;3.00;;
21438;SDS011;10880;50.302;18.736;2023-09-19T05:35:56;3.27;;;2.97;;
21438;SDS011;10880;50.302;18.736;2023-09-19T05:38:23;3.27;;;2.97;;
21438;SDS011;10880;50.302;18.736;2023-09-19T05:40:52;3.07;;;2.77;;
21438;SDS011;10880;50.302;18.736;2023-09-19T05:43:19;2.83;;;2.63;;
21438;SDS011;10880;50.302;18.736;2023-09-19T05:45:47;3.03;;;2.83;;
21438;SDS011;10880;50.302;18.736;2023-09-19T05:48:14;3.00;;;2.70;;
21438;SDS011;10880;50.302;18.736;2023-09-19T05:50:42;2.80;;;2.60;;
21438;SDS011;10880;50.302;18.736;2023-09-19T05:53:09;2.60;;;2.40;;
21438;SDS011;10880;50.302;18.736;2023-09-19T05:55:38;2.53;;;2.33;;
21438;SDS011;10880;50.302;18.736;2023-09-19T05:58:05;2.73;;;2.53;;
21438;SDS011;10880;50.302;18.736;2023-09-19T06:00:32;2.30;;;2.10;;
21438;SDS011;10880;50.302;18.736;2023-09-19T06:02:59;2.30;;;1.90;;
21438;SDS011;10880;50.302;18.736;2023-09-19T06:05:26;2.30;;;2.10;;
21438;SDS011;10880;50.302;18.736;2023-09-19T06:07:55;2.47;;;2.27;;
21438;SDS011;10880;50.302;18.736;2023-09-19T06:10:26;1.77;;;1.67;;
21438;SDS011;10880;50.302;18.736;2023-09-19T06:12:53;1.73;;;1.63;;
21438;SDS011;10880;50.302;18.736;2023-09-19T06:15:23;1.80;;;1.70;;
21438;SDS011;10880;50.302;18.736;2023-09-19T06:17:52;1.70;;;1.60;;
21438;SDS011;10880;50.302;18.736;2023-09-19T06:20:25;1.70;;;1.60;;
21438;SDS011;10880;50.302;18.736;2023-09-19T06:22:52;1.97;;;1.60;;
21438;SDS011;10880;50.302;18.736;2023-09-19T06:25:20;1.50;;;1.40;;
21438;SDS011;10880;50.302;18.736;2023-09-19T06:27:48;1.33;;;1.30;;
21438;SDS011;10880;50.302;18.736;2023-09-19T06:30:17;1.50;;;1.40;;
21438;SDS011;10880;50.302;18.736;2023-09-19T06:32:44;1.40;;;1.30;;
21438;SDS011;10880;50.302;18.736;2023-09-19T06:35:14;1.47;;;1.37;;
21438;SDS011;10880;50.302;18.736;2023-09-19T06:37:42;1.53;;;1.43;;
21438;SDS011;10880;50.302;18.736;2023-09-19T06:40:09;1.70;;;1.60;;
21438;SDS011;10880;50.302;18.736;2023-09-19T06:42:40;1.50;;;1.40;;
21438;SDS011;10880;50.302;18.736;2023-09-19T06:45:14;1.33;;;1.23;;
21438;SDS011;10880;50.302;18.736;2023-09-19T06:47:45;1.60;;;1.50;;
21438;SDS011;10880;50.302;18.736;2023-09-19T06:50:15;1.40;;;1.30;;
21438;SDS011;10880;50.302;18.736;2023-09-19T06:52:45;1.50;;;1.40;;
21438;SDS011;10880;50.302;18.736;2023-09-19T06:55:16;1.50;;;1.40;;
21438;SDS011;10880;50.302;18.736;2023-09-19T06:57:43;1.50;;;1.40;;
21438;SDS011;10880;50.302;18.736;2023-09-19T07:00:10;1.90;;;1.70;;
21438;SDS011;10880;50.302;18.736;2023-09-19T07:03:00;1.60;;;1.50;;
21438;SDS011;10880;50.302;18.736;2023-09-19T07:05:30;1.70;;;1.43;;
21438;SDS011;10880;50.302;18.736;2023-09-19T07:07:57;1.50;;;1.40;;
21438;SDS011;10880;50.302;18.736;2023-09-19T07:10:25;1.50;;;1.40;;
21438;SDS011;10880;50.302;18.736;2023-09-19T07:12:54;1.60;;;1.50;;
21438;SDS011;10880;50.302;18.736;2023-09-19T07:15:22;1.53;;;1.43;;
21438;SDS011;10880;50.302;18.736;2023-09-19T07:17:51;1.40;;;1.30;;
21438;SDS011;10880;50.302;18.736;2023-09-19T07:20:20;1.60;;;1.50;;
21438;SDS011;10880;50.302;18.736;2023-09-19T07:22:46;1.37;;;1.27;;
21438;SDS011;10880;50.302;18.736;2023-09-19T07:25:16;1.20;;;1.20;;
21438;SDS011;10880;50.302;18.736;2023-09-19T07:27:43;1.23;;;1.13;;
21438;SDS011;10880;50.302;18.736;2023-09-19T07:30:09;1.33;;;1.27;;
21438;SDS011;10880;50.302;18.736;2023-09-19T07:32:37;1.40;;;1.30;;
21438;SDS011;10880;50.302;18.736;2023-09-19T07:35:05;2.20;;;1.30;;
21438;SDS011;10880;50.302;18.736;2023-09-19T07:37:31;1.33;;;1.23;;
21438;SDS011;10880;50.302;18.736;2023-09-19T07:40:02;1.30;;;1.20;;
21438;SDS011;10880;50.302;18.736;2023-09-19T07:42:38;1.57;;;1.20;;
21438;SDS011;10880;50.302;18.736;2023-09-19T07:45:07;1.20;;;1.20;;
21438;SDS011;10880;50.302;18.736;2023-09-19T07:47:34;1.13;;;1.13;;
21438;SDS011;10880;50.302;18.736;2023-09-19T07:50:03;1.43;;;1.33;;
21438;SDS011;10880;50.302;18.736;2023-09-19T07:52:30;1.20;;;1.20;;
21438;SDS011;10880;50.302;18.736;2023-09-19T07:54:56;1.33;;;1.23;;
21438;SDS011;10880;50.302;18.736;2023-09-19T07:57:23;1.50;;;1.40;;
21438;SDS011;10880;50.302;18.736;2023-09-19T07:59:50;1.33;;;1.20;;
21438;SDS011;10880;50.302;18.736;2023-09-19T08:02:17;1.10;;;1.10;;
21438;SDS011;10880;50.302;18.736;2023-09-19T08:04:44;1.10;;;1.10;;
21438;SDS011;10880;50.302;18.736;2023-09-19T08:07:12;1.20;;;1.10;;
21438;SDS011;10880;50.302;18.736;2023-09-19T08:09:42;1.00;;;1.00;;
21438;SDS011;10880;50.302;18.736;2023-09-19T08:12:12;1.23;;;1.20;;
21438;SDS011;10880;50.302;18.736;2023-09-19T08:14:38;1.33;;;1.23;;
21438;SDS011;10880;50.302;18.736;2023-09-19T08:17:07;1.30;;;1.20;;
21438;SDS011;10880;50.302;18.736;2023-09-19T08:19:37;1.50;;;1.40;;
21438;SDS011;10880;50.302;18.736;2023-09-19T08:22:07;1.33;;;1.23;;
21438;SDS011;10880;50.302;18.736;2023-09-19T08:24:36;1.53;;;1.40;;
21438;SDS011;10880;50.302;18.736;2023-09-19T08:27:03;1.50;;;1.30;;
21438;SDS011;10880;50.302;18.736;2023-09-19T08:29:31;1.50;;;1.40;;
21438;SDS011;10880;50.302;18.736;2023-09-19T08:31:58;1.53;;;1.43;;
21438;SDS011;10880;50.302;18.736;2023-09-19T08:34:25;1.30;;;1.20;;
21438;SDS011;10880;50.302;18.736;2023-09-19T08:36:52;1.20;;;1.20;;
21438;SDS011;10880;50.302;18.736;2023-09-19T08:39:23;1.20;;;1.10;;
21438;SDS011;10880;50.302;18.736;2023-09-19T08:41:56;1.10;;;1.10;;
21438;SDS011;10880;50.302;18.736;2023-09-19T08:44:27;1.40;;;1.20;;
21438;SDS011;10880;50.302;18.736;2023-09-19T08:47:01;1.27;;;1.27;;
21438;SDS011;10880;50.302;18.736;2023-09-19T08:52:27;1.60;;;1.50;;
21438;SDS011;10880;50.302;18.736;2023-09-19T08:55:01;1.40;;;1.30;;
21438;SDS011;10880;50.302;18.736;2023-09-19T08:57:36;1.47;;;1.37;;
21438;SDS011;10880;50.302;18.736;2023-09-19T09:00:08;1.37;;;1.37;;
21438;SDS011;10880;50.302;18.736;2023-09-19T09:02:40;1.30;;;1.30;;
21438;SDS011;10880;50.302;18.736;2023-09-19T09:05:09;1.60;;;1.50;;
21438;SDS011;10880;50.302;18.736;2023-09-19T09:07:37;1.30;;;1.20;;
21438;SDS011;10880;50.302;18.736;2023-09-19T09:10:04;1.53;;;1.37;;
21438;SDS011;10880;50.302;18.736;2023-09-19T09:12:31;1.20;;;1.20;;
21438;SDS011;10880;50.302;18.736;2023-09-19T09:15:02;1.40;;;1.30;;
21438;SDS011;10880;50.302;18.736;2023-09-19T09:17:30;1.33;;;1.23;;
21438;SDS011;10880;50.302;18.736;2023-09-19T09:19:57;1.40;;;1.30;;
21438;SDS011;10880;50.302;18.736;2023-09-19T09:22:23;1.27;;;1.27;;
21438;SDS011;10880;50.302;18.736;2023-09-19T09:24:56;1.33;;;1.23;;
21438;SDS011;10880;50.302;18.736;2023-09-19T09:27:30;2.07;;;1.60;;
21438;SDS011;10880;50.302;18.736;2023-09-19T09:29:58;1.40;;;1.30;;
21438;SDS011;10880;50.302;18.736;2023-09-19T09:32:28;1.20;;;1.10;;
21438;SDS011;10880;50.302;18.736;2023-09-19T09:35:00;1.23;;;1.13;;
21438;SDS011;10880;50.302;18.736;2023-09-19T09:37:28;1.27;;;1.17;;
21438;SDS011;10880;50.302;18.736;2023-09-19T09:39:57;1.10;;;1.10;;
21438;SDS011;10880;50.302;18.736;2023-09-19T09:42:40;1.10;;;1.10;;
21438;SDS011;10880;50.302;18.736;2023-09-19T09:45:23;1.30;;;1.17;;
21438;SDS011;10880;50.302;18.736;2023-09-19T09:47:59;1.30;;;1.20;;
21438;SDS011;10880;50.302;18.736;2023-09-19T09:50:35;1.07;;;1.07;;
21438;SDS011;10880;50.302;18.736;2023-09-19T09:53:19;1.20;;;1.20;;
21438;SDS011;10880;50.302;18.736;2023-09-19T09:55:57;1.10;;;1.10;;
21438;SDS011;10880;50.302;18.736;2023-09-19T09:58:34;1.10;;;1.10;;
21438;SDS011;10880;50.302;18.736;2023-09-19T10:01:06;1.23;;;1.10;;
21438;SDS011;10880;50.302;18.736;2023-09-19T10:03:37;1.20;;;1.10;;
21438;SDS011;10880;50.302;18.736;2023-09-19T10:06:12;1.30;;;1.30;;
21438;SDS011;10880;50.302;18.736;2023-09-19T10:11:31;1.20;;;1.20;;
21438;SDS011;10880;50.302;18.736;2023-09-19T10:13:58;1.30;;;1.20;;
21438;SDS011;10880;50.302;18.736;2023-09-19T10:16:32;1.00;;;1.00;;
21438;SDS011;10880;50.302;18.736;2023-09-19T10:19:01;1.57;;;1.13;;
21438;SDS011;10880;50.302;18.736;2023-09-19T10:21:33;1.30;;;1.20;;
21438;SDS011;10880;50.302;18.736;2023-09-19T10:24:03;1.30;;;1.10;;
21438;SDS011;10880;50.302;18.736;2023-09-19T10:26:34;1.23;;;1.17;;
21438;SDS011;10880;50.302;18.736;2023-09-19T10:29:02;1.37;;;1.27;;
21438;SDS011;10880;50.302;18.736;2023-09-19T10:31:33;1.77;;;1.30;;
21438;SDS011;10880;50.302;18.736;2023-09-19T10:34:04;1.20;;;1.20;;
21438;SDS011;10880;50.302;18.736;2023-09-19T10:36:35;1.30;;;1.20;;
21438;SDS011;10880;50.302;18.736;2023-09-19T10:39:03;1.40;;;1.30;;
21438;SDS011;10880;50.302;18.736;2023-09-19T10:41:32;1.10;;;1.10;;
21438;SDS011;10880;50.302;18.736;2023-09-19T10:44:03;1.00;;;1.00;;
21438;SDS011;10880;50.302;18.736;2023-09-19T10:46:34;1.50;;;1.40;;
21438;SDS011;10880;50.302;18.736;2023-09-19T10:49:00;1.30;;;1.23;;
21438;SDS011;10880;50.302;18.736;2023-09-19T10:51:29;1.20;;;1.20;;
21438;SDS011;10880;50.302;18.736;2023-09-19T10:54:08;1.10;;;1.10;;
21438;SDS011;10880;50.302;18.736;2023-09-19T10:56:42;1.17;;;1.13;;
21438;SDS011;10880;50.302;18.736;2023-09-19T10:59:13;1.17;;;1.17;;
21438;SDS011;10880;50.302;18.736;2023-09-19T11:01:42;1.63;;;1.30;;
21438;SDS011;10880;50.302;18.736;2023-09-19T11:07:10;1.17;;;1.17;;
21438;SDS011;10880;50.302;18.736;2023-09-19T11:09:43;1.40;;;1.30;;
21438;SDS011;10880;50.302;18.736;2023-09-19T11:15:01;1.10;;;1.10;;
21438;SDS011;10880;50.302;18.736;2023-09-19T11:17:39;1.10;;;1.10;;
21438;SDS011;10880;50.302;18.736;2023-09-19T11:30:39;1.00;;;1.00;;
21438;SDS011;10880;50.302;18.736;2023-09-19T11:33:18;1.10;;;1.10;;
21438;SDS011;10880;50.302;18.736;2023-09-19T11:36:11;1.13;;;1.10;;
21438;SDS011;10880;50.302;18.736;2023-09-19T11:43:46;1.20;;;1.20;;
21438;SDS011;10880;50.302;18.736;2023-09-19T11:46:13;1.17;;;1.17;;
21438;SDS011;10880;50.302;18.736;2023-09-19T11:48:44;1.20;;;1.20;;
21438;SDS011;10880;50.302;18.736;2023-09-19T11:51:16;1.40;;;1.30;;
21438;SDS011;10880;50.302;18.736;2023-09-19T11:53:52;1.40;;;1.30;;
21438;SDS011;10880;50.302;18.736;2023-09-19T11:56:21;1.10;;;1.10;;
21438;SDS011;10880;50.302;18.736;2023-09-19T11:58:50;1.10;;;1.10;;
21438;SDS011;10880;50.302;18.736;2023-09-19T12:01:25;1.30;;;1.20;;
21438;SDS011;10880;50.302;18.736;2023-09-19T12:04:11;1.30;;;1.20;;
21438;SDS011;10880;50.302;18.736;2023-09-19T12:06:38;1.20;;;1.10;;
21438;SDS011;10880;50.302;18.736;2023-09-19T12:09:13;1.40;;;1.30;;
21438;SDS011;10880;50.302;18.736;2023-09-19T12:11:45;1.03;;;1.03;;
21438;SDS011;10880;50.302;18.736;2023-09-19T12:14:11;1.20;;;1.20;;
21438;SDS011;10880;50.302;18.736;2023-09-19T12:16:52;1.23;;;1.20;;
21438;SDS011;10880;50.302;18.736;2023-09-19T12:19:21;1.10;;;1.10;;
21438;SDS011;10880;50.302;18.736;2023-09-19T12:22:00;1.10;;;1.10;;
21438;SDS011;10880;50.302;18.736;2023-09-19T12:24:31;1.27;;;1.17;;
21438;SDS011;10880;50.302;18.736;2023-09-19T12:27:02;1.47;;;1.37;;
21438;SDS011;10880;50.302;18.736;2023-09-19T12:29:46;1.50;;;1.40;;
21438;SDS011;10880;50.302;18.736;2023-09-19T12:32:36;1.27;;;1.27;;
21438;SDS011;10880;50.302;18.736;2023-09-19T12:35:06;1.10;;;1.10;;
21438;SDS011;10880;50.302;18.736;2023-09-19T12:37:43;1.30;;;1.20;;
21438;SDS011;10880;50.302;18.736;2023-09-19T12:40:19;1.10;;;1.10;;
21438;SDS011;10880;50.302;18.736;2023-09-19T12:42:54;1.30;;;1.20;;
21438;SDS011;10880;50.302;18.736;2023-09-19T12:45:21;1.13;;;1.13;;
21438;SDS011;10880;50.302;18.736;2023-09-19T12:51:07;1.20;;;1.20;;
21438;SDS011;10880;50.302;18.736;2023-09-19T12:53:45;1.27;;;1.17;;
21438;SDS011;10880;50.302;18.736;2023-09-19T12:56:15;1.30;;;1.20;;
21438;SDS011;10880;50.302;18.736;2023-09-19T12:58:50;1.20;;;1.20;;
21438;SDS011;10880;50.302;18.736;2023-09-19T13:01:21;1.10;;;1.10;;
21438;SDS011;10880;50.302;18.736;2023-09-19T13:06:46;1.10;;;1.10;;
21438;SDS011;10880;50.302;18.736;2023-09-19T13:09:15;1.13;;;1.07;;
21438;SDS011;10880;50.302;18.736;2023-09-19T13:11:42;1.23;;;1.10;;
21438;SDS011;10880;50.302;18.736;2023-09-19T13:25:18;1.00;;;1.00;;
21438;SDS011;10880;50.302;18.736;2023-09-19T13:27:46;1.50;;;1.40;;
21438;SDS011;10880;50.302;18.736;2023-09-19T13:30:17;1.10;;;1.10;;
21438;SDS011;10880;50.302;18.736;2023-09-19T13:32:44;1.10;;;1.10;;
21438;SDS011;10880;50.302;18.736;2023-09-19T13:35:13;1.30;;;1.20;;
21438;SDS011;10880;50.302;18.736;2023-09-19T13:37:40;1.10;;;1.10;;
21438;SDS011;10880;50.302;18.736;2023-09-19T13:40:11;1.20;;;1.10;;
21438;SDS011;10880;50.302;18.736;2023-09-19T13:42:39;1.27;;;1.20;;
21438;SDS011;10880;50.302;18.736;2023-09-19T13:45:06;1.30;;;1.20;;
21438;SDS011;10880;50.302;18.736;2023-09-19T13:47:33;1.30;;;1.20;;
21438;SDS011;10880;50.302;18.736;2023-09-19T13:50:02;1.10;;;1.10;;
21438;SDS011;10880;50.302;18.736;2023-09-19T13:52:30;1.20;;;1.20;;
21438;SDS011;10880;50.302;18.736;2023-09-19T13:54:57;1.30;;;1.20;;
21438;SDS011;10880;50.302;18.736;2023-09-19T13:57:25;1.20;;;1.10;;
21438;SDS011;10880;50.302;18.736;2023-09-19T13:59:52;1.27;;;1.17;;
21438;SDS011;10880;50.302;18.736;2023-09-19T14:02:22;1.10;;;1.10;;
21438;SDS011;10880;50.302;18.736;2023-09-19T14:04:49;1.00;;;1.00;;
21438;SDS011;10880;50.302;18.736;2023-09-19T14:07:17;1.10;;;1.10;;
21438;SDS011;10880;50.302;18.736;2023-09-19T14:09:46;1.27;;;1.20;;
21438;SDS011;10880;50.302;18.736;2023-09-19T14:12:13;1.00;;;1.00;;
21438;SDS011;10880;50.302;18.736;2023-09-19T14:14:40;1.10;;;1.10;;
21438;SDS011;10880;50.302;18.736;2023-09-19T14:17:06;1.20;;;1.10;;
21438;SDS011;10880;50.302;18.736;2023-09-19T14:19:33;1.00;;;1.00;;
21438;SDS011;10880;50.302;18.736;2023-09-19T14:22:00;1.20;;;1.10;;
21438;SDS011;10880;50.302;18.736;2023-09-19T14:24:33;1.10;;;1.10;;
21438;SDS011;10880;50.302;18.736;2023-09-19T14:27:00;1.10;;;1.10;;
21438;SDS011;10880;50.302;18.736;2023-09-19T14:29:29;1.10;;;1.10;;
21438;SDS011;10880;50.302;18.736;2023-09-19T14:31:57;1.10;;;1.10;;
21438;SDS011;10880;50.302;18.736;2023-09-19T14:34:23;0.97;;;0.97;;
21438;SDS011;10880;50.302;18.736;2023-09-19T14:36:50;0.90;;;0.90;;
21438;SDS011;10880;50.302;18.736;2023-09-19T14:39:16;1.10;;;1.10;;
21438;SDS011;10880;50.302;18.736;2023-09-19T14:41:43;1.17;;;1.17;;
21438;SDS011;10880;50.302;18.736;2023-09-19T14:44:09;1.10;;;1.00;;
21438;SDS011;10880;50.302;18.736;2023-09-19T14:46:37;1.00;;;1.00;;
21438;SDS011;10880;50.302;18.736;2023-09-19T14:49:05;1.10;;;1.10;;
21438;SDS011;10880;50.302;18.736;2023-09-19T14:51:31;1.00;;;1.00;;
21438;SDS011;10880;50.302;18.736;2023-09-19T14:53:58;0.90;;;0.90;;
21438;SDS011;10880;50.302;18.736;2023-09-19T14:56:26;1.07;;;1.07;;
21438;SDS011;10880;50.302;18.736;2023-09-19T14:58:54;1.10;;;1.10;;
21438;SDS011;10880;50.302;18.736;2023-09-19T15:01:20;1.00;;;1.00;;
21438;SDS011;10880;50.302;18.736;2023-09-19T15:03:48;1.00;;;1.00;;
21438;SDS011;10880;50.302;18.736;2023-09-19T15:06:15;1.00;;;1.00;;
21438;SDS011;10880;50.302;18.736;2023-09-19T15:08:46;1.00;;;1.00;;
21438;SDS011;10880;50.302;18.736;2023-09-19T15:11:13;1.00;;;1.00;;
21438;SDS011;10880;50.302;18.736;2023-09-19T15:13:43;1.00;;;1.00;;
21438;SDS011;10880;50.302;18.736;2023-09-19T15:16:10;1.03;;;1.00;;
21438;SDS011;10880;50.302;18.736;2023-09-19T15:18:38;0.90;;;0.90;;
21438;SDS011;10880;50.302;18.736;2023-09-19T15:21:07;1.00;;;1.00;;
21438;SDS011;10880;50.302;18.736;2023-09-19T15:23:36;1.00;;;0.90;;
21438;SDS011;10880;50.302;18.736;2023-09-19T15:26:04;1.10;;;1.10;;
21438;SDS011;10880;50.302;18.736;2023-09-19T15:28:39;1.07;;;1.00;;
21438;SDS011;10880;50.302;18.736;2023-09-19T15:31:07;1.00;;;1.00;;
21438;SDS011;10880;50.302;18.736;2023-09-19T15:33:37;1.00;;;1.00;;
21438;SDS011;10880;50.302;18.736;2023-09-19T15:36:04;0.90;;;0.90;;
21438;SDS011;10880;50.302;18.736;2023-09-19T15:38:31;1.00;;;1.00;;
21438;SDS011;10880;50.302;18.736;2023-09-19T15:41:19;1.10;;;1.10;;
21438;SDS011;10880;50.302;18.736;2023-09-19T15:43:46;1.10;;;1.10;;
21438;SDS011;10880;50.302;18.736;2023-09-19T15:46:13;1.30;;;1.20;;